Inicio / INTERNACIONALES / NASCAR / EN ATLANTA, ELLIOTT PISÓ FUERTE
Manfrey

EN ATLANTA, ELLIOTT PISÓ FUERTE

Chase Elliott, consiguió una nueva victoria en la temporada 2022 de la NASCAR y se sigue escapando en la cima del campeonato.

El oriundo del estado de Georgia, escenario que recibió hoy a la NASCAR, logró su tercer triunfo del presente calendario (había ganado en Dover y en Nashville), la primera en el óvalo de Atlanta, y la 16ª de su trayectoria en la categoría. Hoy barrió en ambas etapas y lideró con el Chevrolet N° 9 de Hendrick Motorsports durante 96 ​​de las 260 vueltas, el máximo de la carrera.

Ross Chastain sobrevivió a un par de incidentes para llegar en segundo lugar con el Chevrolet del Trackhouse Racing, con Austin Cindric ocupando el tercer lugar. Erik Jones terminó cuarto escoltado por Ryan Blaney para completar los cinco primeros puestos de la competencia del domingo, la 19na de la temporada.

La próxima carrera de la NASCAR es la «Ambetter 301», programada para el próximo domingo en el «New Hampshire Motor Speedway».

Clasificador final – NASCAR en Atlanta:

Pos. Piloto Marca Vueltas Tiempo Diferencia
1 9 Chase Elliott Chevrolet 260 3:22’18.210
2 1 Ross Chastain Chevrolet 260 3:22’18.291 0.081
3 2 Austin Cindric Ford 260 3:22’18.751 0.541
4 43 Erik Jones Chevrolet 260 3:22’19.201 0.991
5 12 Ryan Blaney Ford 260 3:22’19.375 1.165
6 99 Daniel Suarez Chevrolet 260 3:22’19.725 1.515
7 31 Justin Haley Chevrolet 260 3:22’20.493 2.283
8 10 Aric Almirola Ford 260 3:22’20.741 2.531
9 41 Cole Custer Ford 260 3:22’20.742 2.532
10 21 Harrison Burton Ford 260 3:22’20.743 2.533
11 19 Martin Truex Jr. Toyota 260 3:22’21.230 3.020
12 4 Kevin Harvick Ford 260 3:22’21.458 3.248
13 5 Kyle Larson Chevrolet 260 3:22’21.750 3.540
14 23 Darrell Wallace Jr. Toyota 260 3:22’22.382 4.172
15 34 Michael McDowell Ford 260 3:22’22.937 4.727
16 14 Chase Briscoe Ford 260 3:22’23.220 5.010
17 38 Todd Gilliland Ford 260 3:22’23.961 5.751
18 6 Brad Keselowski Ford 260 3:22’23.962 5.752
19 20 Christopher Bell Toyota 260 3:22’24.231 6.021
20 18 Kyle Busch Toyota 260 3:22’25.635 7.425
21 7 Corey Lajoie Chevrolet 260 3:22’50.507 32.297
22 45 Kurt Busch Toyota 259 3:21’44.715 1 vta.
23 51 Cody Ware Ford 259 3:22’31.043 1 vta.
24 77 Landon Cassill Chevrolet 259 3:22’38.944 1 vta.
25 11 Denny Hamlin Toyota 259 3:22’45.434 1 vta.
26 22 Joey Logano Ford 252 3:13’49.518 8 vtas.
27 15 Garrett Smithley Ford 252 3:22’44.096 8 vtas.
28 42 Ty Dillon Chevrolet 174 2:18’54.815 86 vtas.
29 8 Tyler Reddick Chevrolet 170 2:09’14.348 90 vtas.
30 24 William Byron Chevrolet 170 2:09’29.338 90 vtas.
31 47 Ricky Stenhouse Jr. Chevrolet 162 2:01’40.071 98 vtas.
32 48 Alex Bowman Chevrolet 160 2:06’10.477 100 vtas.
33 17 Chris Buescher Ford 107 1:23’16.634 153 vtas.
34 16 Noah Gragson Chevrolet 91 1:03’34.188 169 vtas.
35 3 Austin Dillon Chevrolet 90 1:02’39.164 170 vtas.
36 78 B.J. McLeod Ford 77 50’24.542 183 vtas.

 

 

 

 

 

 

 

 

 

 

Fuente: Campeones/lat.motorsport.com

JEA

Te puede interesar

HARVICK REGRESÓ AL TRIUNFO EN MICHIGAN

Tras dos temporadas sin triunfos, Kevin Harvick se reencontró con una victoria clave para luchar …